Time;durP1;ratioP1;P1;durP2;ratioP2;P2;SDS_P1;SDS_P2;PMS_P1;PMS_P2;Temp;Humidity;BMP_temperature;BMP_pressure;BME280_temperature;BME280_humidity;BME280_pressure;Samples;Min_cycle;Max_cycle;Signal;HPM_P1;HPM_P2
2024/01/16 00:01:24;;;;;;;0.20;0.20;;;0.50;99.90;;;;;;5026761;28;20037;-81
2024/01/16 00:03:50;;;;;;;0.32;0.20;;;0.40;99.90;;;;;;5027661;28;20044;-81
2024/01/16 00:06:16;;;;;;;0.90;0.68;;;0.30;99.90;;;;;;5030885;28;20037;-81
2024/01/16 00:08:41;;;;;;;0.22;0.22;;;0.20;99.90;;;;;;5031685;28;20042;-81
2024/01/16 00:11:07;;;;;;;0.30;0.30;;;0.20;99.90;;;;;;5014691;28;20048;-81
2024/01/16 00:13:33;;;;;;;3.28;0.35;;;0.10;99.90;;;;;;5001952;28;20037;-81
2024/01/16 00:16:03;;;;;;;0.98;0.30;;;0.10;99.90;;;;;;5031952;28;20036;-80
2024/01/16 00:18:29;;;;;;;1.67;0.50;;;0.00;99.90;;;;;;5036093;28;20056;-80
2024/01/16 00:21:02;;;;;;;1.85;0.40;;;0.00;99.90;;;;;;5015936;28;20099;-80
2024/01/16 00:23:31;;;;;;;0.30;0.30;;;-0.10;99.90;;;;;;5016416;28;20525;-80
2024/01/16 00:25:57;;;;;;;0.10;0.10;;;-0.10;99.90;;;;;;5011514;28;20509;-80
2024/01/16 00:28:23;;;;;;;0.30;0.30;;;-0.10;99.90;;;;;;5030322;28;20037;-80
2024/01/16 00:30:48;;;;;;;0.10;0.10;;;-0.20;99.90;;;;;;5029092;28;20052;-80
2024/01/16 00:33:14;;;;;;;0.10;0.10;;;-0.30;99.90;;;;;;5032487;28;20552;-81
2024/01/16 00:35:40;;;;;;;0.40;0.40;;;-0.30;99.90;;;;;;5032592;28;20040;-81
2024/01/16 00:38:06;;;;;;;0.15;0.15;;;-0.40;99.90;;;;;;5024808;28;20099;-81
2024/01/16 00:40:32;;;;;;;0.20;0.15;;;-0.40;99.90;;;;;;5019192;28;20503;-81
2024/01/16 00:42:58;;;;;;;0.52;0.20;;;-0.50;99.90;;;;;;5023528;28;20037;-81
2024/01/16 00:45:24;;;;;;;5.28;0.90;;;-0.50;99.90;;;;;;5019702;28;20048;-81
2024/01/16 00:47:50;;;;;;;4.57;0.77;;;-0.50;99.90;;;;;;5029563;28;20443;-81
2024/01/16 00:50:16;;;;;;;0.20;0.20;;;-0.50;99.90;;;;;;5020987;28;20040;-81
2024/01/16 00:52:42;;;;;;;0.10;0.10;;;-0.50;99.90;;;;;;5033289;28;20037;-81
2024/01/16 00:55:08;;;;;;;0.10;0.10;;;-0.60;99.90;;;;;;5028476;28;20048;-81
2024/01/16 00:57:33;;;;;;;0.20;0.20;;;-0.60;99.90;;;;;;5035261;28;20072;-80
2024/01/16 00:59:59;;;;;;;0.10;0.10;;;-0.60;99.90;;;;;;5024231;28;20111;-80
2024/01/16 01:02:25;;;;;;;0.80;0.30;;;-0.50;99.90;;;;;;5033828;28;20063;-80
2024/01/16 01:04:51;;;;;;;0.55;0.15;;;-0.40;99.90;;;;;;5037360;28;20096;-80
2024/01/16 01:07:16;;;;;;;3.83;0.75;;;-0.40;99.90;;;;;;5025378;28;20109;-80
2024/01/16 01:09:42;;;;;;;0.52;0.52;;;-0.30;99.90;;;;;;5032499;28;20552;-80
2024/01/16 01:12:08;;;;;;;1.05;0.43;;;-0.20;99.90;;;;;;5028320;28;20059;-80
2024/01/16 01:14:34;;;;;;;0.73;0.38;;;-0.20;99.90;;;;;;5032693;28;20095;-80
2024/01/16 01:17:00;;;;;;;10.70;0.63;;;-0.10;99.90;;;;;;5039066;28;20065;-80
2024/01/16 01:19:25;;;;;;;0.15;0.15;;;-0.10;99.90;;;;;;5036056;28;20045;-80
2024/01/16 01:21:51;;;;;;;9.32;0.60;;;0.00;99.90;;;;;;5023034;28;20072;-80
2024/01/16 01:24:17;;;;;;;8.35;0.57;;;0.00;99.90;;;;;;5030109;28;20049;-80
2024/01/16 01:26:44;;;;;;;0.77;0.50;;;0.00;99.90;;;;;;5017377;28;20041;-80
2024/01/16 01:29:10;;;;;;;1.80;0.47;;;0.00;99.90;;;;;;5018939;28;20086;-80
2024/01/16 01:31:35;;;;;;;4.55;0.32;;;0.00;99.90;;;;;;5029822;28;20044;-80
2024/01/16 01:34:01;;;;;;;0.10;0.10;;;0.00;99.90;;;;;;5023469;28;20032;-80
2024/01/16 01:36:27;;;;;;;0.40;0.40;;;0.00;99.90;;;;;;5027277;28;20060;-80
2024/01/16 01:38:53;;;;;;;11.15;1.58;;;0.00;99.90;;;;;;5018315;28;20041;-80
2024/01/16 01:41:19;;;;;;;4.55;0.40;;;-0.10;99.90;;;;;;5016409;28;20063;-80
2024/01/16 01:43:45;;;;;;;0.20;0.20;;;-0.10;99.90;;;;;;5020246;28;20075;-80
2024/01/16 01:46:17;;;;;;;0.73;0.73;;;-0.10;99.90;;;;;;5015686;28;20044;-80
2024/01/16 01:48:45;;;;;;;2.20;0.68;;;-0.10;99.90;;;;;;5015687;28;20045;-80
2024/01/16 01:51:12;;;;;;;1.20;0.82;;;-0.10;99.90;;;;;;5030455;28;20029;-80
2024/01/16 01:53:40;;;;;;;0.77;0.45;;;-0.10;99.90;;;;;;5026720;28;20083;-80
2024/01/16 01:56:10;;;;;;;3.45;1.35;;;-0.20;99.90;;;;;;5027146;28;20508;-80
2024/01/16 01:58:39;;;;;;;2.35;1.60;;;-0.20;99.90;;;;;;5022610;28;20049;-80
2024/01/16 02:01:09;;;;;;;3.70;1.65;;;-0.10;99.90;;;;;;5020267;28;20093;-80
2024/01/16 02:03:45;;;;;;;4.75;1.63;;;-0.10;99.90;;;;;;5017435;28;20041;-80
2024/01/16 02:06:12;;;;;;;3.40;1.58;;;-0.10;99.90;;;;;;5018631;28;20044;-80
2024/01/16 02:08:39;;;;;;;6.75;1.65;;;-0.10;99.90;;;;;;5027136;28;20121;-80
2024/01/16 02:11:05;;;;;;;2.63;0.95;;;-0.10;99.90;;;;;;5019569;28;20037;-80
2024/01/16 02:13:31;;;;;;;0.63;0.60;;;-0.10;99.90;;;;;;5022747;28;20091;-80
2024/01/16 02:15:58;;;;;;;1.42;0.45;;;0.00;99.90;;;;;;5022332;28;20555;-80
2024/01/16 02:18:23;;;;;;;0.17;0.17;;;0.10;99.90;;;;;;5024862;28;20125;-80
2024/01/16 02:20:49;;;;;;;5.60;0.38;;;0.20;99.90;;;;;;5012294;28;20072;-80
2024/01/16 02:23:18;;;;;;;0.10;0.10;;;0.30;99.90;;;;;;5009880;28;20091;-80
2024/01/16 02:25:44;;;;;;;0.25;0.25;;;0.40;99.90;;;;;;5020436;28;20129;-81
2024/01/16 02:28:10;;;;;;;1.08;0.20;;;0.40;99.90;;;;;;5018613;28;20042;-81
2024/01/16 02:30:36;;;;;;;1.23;0.17;;;0.50;99.90;;;;;;5006421;28;20124;-82
2024/01/16 02:33:03;;;;;;;3.40;0.40;;;0.50;99.90;;;;;;5023422;28;20037;-82
2024/01/16 02:35:29;;;;;;;0.10;0.10;;;0.50;99.90;;;;;;5003331;28;20103;-83
2024/01/16 02:37:55;;;;;;;0.32;0.20;;;0.40;99.90;;;;;;5023218;28;20042;-83
2024/01/16 02:40:21;;;;;;;3.63;0.30;;;0.40;99.90;;;;;;5020073;28;20060;-82
2024/01/16 02:42:46;;;;;;;0.80;0.30;;;0.40;99.90;;;;;;5011287;28;20037;-83
2024/01/16 02:45:13;;;;;;;0.10;0.10;;;0.30;99.90;;;;;;5020155;28;20483;-83
2024/01/16 02:47:38;;;;;;;0.52;0.40;;;0.20;99.90;;;;;;5019641;28;20053;-83
2024/01/16 02:50:05;;;;;;;0.52;0.40;;;0.20;99.90;;;;;;5011773;28;20037;-82
2024/01/16 02:52:31;;;;;;;0.65;0.20;;;0.20;99.90;;;;;;5022573;28;20044;-82
2024/01/16 02:54:56;;;;;;;0.55;0.20;;;0.10;99.90;;;;;;5015537;28;20033;-82
2024/01/16 02:57:22;;;;;;;5.97;0.30;;;0.10;99.90;;;;;;5036124;28;20057;-83
2024/01/16 02:59:48;;;;;;;0.15;0.15;;;0.10;99.90;;;;;;5042348;28;20518;-83
2024/01/16 03:02:14;;;;;;;0.30;0.30;;;0.00;99.90;;;;;;5038934;28;20483;-83
2024/01/16 03:04:40;;;;;;;2.83;0.40;;;0.00;99.90;;;;;;5032984;28;20029;-83
2024/01/16 03:07:05;;;;;;;0.20;0.20;;;0.00;99.90;;;;;;5034988;28;20044;-83
2024/01/16 03:09:31;;;;;;;0.25;0.25;;;0.00;99.90;;;;;;5023966;28;20041;-83
2024/01/16 03:11:59;;;;;;;0.10;0.10;;;0.00;99.90;;;;;;5034437;28;20037;-83
2024/01/16 03:14:25;;;;;;;0.20;0.20;;;0.00;99.90;;;;;;5031579;28;20063;-83
2024/01/16 03:16:51;;;;;;;2.35;1.50;;;0.00;99.90;;;;;;5036021;28;20068;-83
2024/01/16 03:19:17;;;;;;;0.40;0.40;;;0.00;99.90;;;;;;5038708;28;20044;-83
2024/01/16 03:21:42;;;;;;;0.20;0.20;;;0.00;99.90;;;;;;5037226;28;20412;-83
2024/01/16 03:24:10;;;;;;;0.57;0.52;;;0.00;99.90;;;;;;5018246;28;20029;-83
2024/01/16 03:26:37;;;;;;;0.20;0.10;;;-0.10;99.90;;;;;;5033979;28;20730;-83
2024/01/16 03:29:03;;;;;;;0.10;0.10;;;0.00;99.90;;;;;;5034801;28;20399;-83
2024/01/16 03:31:28;;;;;;;25.88;1.00;;;-0.10;99.90;;;;;;5018358;28;20032;-83
2024/01/16 03:33:54;;;;;;;0.88;0.77;;;-0.10;99.90;;;;;;5017903;28;20506;-83
2024/01/16 03:36:20;;;;;;;0.10;0.10;;;-0.10;99.90;;;;;;5021366;28;20174;-83
2024/01/16 03:38:46;;;;;;;0.30;0.25;;;-0.10;99.90;;;;;;5016484;28;20045;-83
2024/01/16 03:41:12;;;;;;;2.55;0.10;;;-0.20;99.90;;;;;;5032110;28;20048;-83
2024/01/16 03:43:37;;;;;;;1.67;0.63;;;-0.30;99.90;;;;;;5038974;28;20040;-83
2024/01/16 03:46:03;;;;;;;0.10;0.10;;;-0.40;99.90;;;;;;5043217;28;20048;-83
2024/01/16 03:48:29;;;;;;;0.32;0.32;;;-0.50;99.90;;;;;;5035478;28;20037;-83
2024/01/16 03:50:56;;;;;;;2.90;0.55;;;-0.60;99.90;;;;;;5031755;28;20036;-83
2024/01/16 03:53:22;;;;;;;1.90;0.40;;;-0.70;99.90;;;;;;5041868;28;20410;-83
2024/01/16 03:55:49;;;;;;;0.10;0.10;;;-0.70;99.90;;;;;;5017777;28;20053;-83
2024/01/16 03:58:16;;;;;;;2.50;0.68;;;-0.80;99.90;;;;;;5027593;28;20403;-83
2024/01/16 04:00:41;;;;;;;0.25;0.25;;;-0.80;99.90;;;;;;5022663;28;20033;-83
2024/01/16 04:03:07;;;;;;;0.20;0.20;;;-0.80;99.90;;;;;;5018167;28;20052;-83
2024/01/16 04:05:33;;;;;;;1.67;0.25;;;-0.80;99.90;;;;;;5023332;28;20045;-83
2024/01/16 04:07:59;;;;;;;0.40;0.40;;;-0.80;99.90;;;;;;5039000;28;20028;-83
2024/01/16 04:10:25;;;;;;;0.80;0.40;;;-0.80;99.90;;;;;;5036326;28;20043;-83
2024/01/16 04:12:51;;;;;;;0.35;0.35;;;-0.70;99.90;;;;;;5039364;28;20028;-82
2024/01/16 04:15:17;;;;;;;5.70;0.73;;;-0.70;99.90;;;;;;5022383;28;20074;-82
2024/01/16 04:17:43;;;;;;;0.20;0.20;;;-0.70;99.90;;;;;;5040393;28;20040;-82
2024/01/16 04:20:09;;;;;;;1.85;0.73;;;-0.60;99.90;;;;;;5035500;28;20041;-82
2024/01/16 04:22:35;;;;;;;0.43;0.20;;;-0.60;99.90;;;;;;5036206;28;20095;-82
2024/01/16 04:25:01;;;;;;;3.97;1.10;;;-0.60;99.90;;;;;;5022283;28;20103;-82
2024/01/16 04:27:27;;;;;;;0.13;0.13;;;-0.50;99.90;;;;;;5035985;28;20033;-82
2024/01/16 04:29:53;;;;;;;0.38;0.28;;;-0.50;99.90;;;;;;5025642;28;20119;-82
2024/01/16 04:32:19;;;;;;;0.13;0.13;;;-0.50;99.90;;;;;;5021791;28;20049;-82
2024/01/16 04:34:44;;;;;;;3.20;0.50;;;-0.40;99.90;;;;;;5043259;28;20025;-82
2024/01/16 04:37:10;;;;;;;1.48;0.47;;;-0.40;99.90;;;;;;5021399;28;20037;-82
2024/01/16 04:39:36;;;;;;;0.10;0.10;;;-0.40;99.90;;;;;;5027161;28;20419;-82
2024/01/16 04:42:02;;;;;;;4.10;0.63;;;-0.40;99.90;;;;;;5039643;28;20068;-82
2024/01/16 04:44:28;;;;;;;4.78;0.45;;;-0.50;99.90;;;;;;5038908;28;20403;-82
2024/01/16 04:46:54;;;;;;;10.75;0.88;;;-0.50;99.90;;;;;;5040069;28;20037;-82
2024/01/16 04:49:20;;;;;;;5.47;0.28;;;-0.50;99.90;;;;;;5024538;28;20057;-82
2024/01/16 04:51:45;;;;;;;0.80;0.52;;;-0.40;99.90;;;;;;5026132;28;20380;-82
2024/01/16 04:54:12;;;;;;;0.45;0.15;;;-0.40;99.90;;;;;;5043072;28;20041;-82
2024/01/16 04:56:38;;;;;;;0.17;0.13;;;-0.40;99.90;;;;;;5032538;28;20091;-82
2024/01/16 04:59:04;;;;;;;0.65;0.25;;;-0.40;99.90;;;;;;5022806;28;20037;-82
2024/01/16 05:01:29;;;;;;;0.10;0.10;;;-0.30;99.90;;;;;;5020218;28;20037;-82
2024/01/16 05:03:55;;;;;;;0.10;0.10;;;-0.30;99.90;;;;;;5040067;28;20119;-81
2024/01/16 05:06:21;;;;;;;1.10;0.65;;;-0.20;99.90;;;;;;5023409;28;20428;-82
2024/01/16 05:08:48;;;;;;;1.27;0.20;;;-0.20;99.90;;;;;;5021087;28;20029;-82
2024/01/16 05:11:14;;;;;;;0.30;0.30;;;-0.10;99.90;;;;;;5042028;28;20072;-82
2024/01/16 05:13:40;;;;;;;3.38;0.20;;;0.00;99.90;;;;;;5035922;28;20071;-82
2024/01/16 05:16:06;;;;;;;2.00;1.08;;;0.00;99.90;;;;;;5020537;28;20124;-82
2024/01/16 05:18:34;;;;;;;0.45;0.45;;;0.00;99.90;;;;;;5015203;28;20049;-82
2024/01/16 05:21:02;;;;;;;0.73;0.40;;;0.10;99.90;;;;;;5036827;28;20398;-82
2024/01/16 05:23:28;;;;;;;0.25;0.20;;;0.20;99.90;;;;;;5019401;28;20041;-82
2024/01/16 05:25:53;;;;;;;0.10;0.10;;;0.20;99.90;;;;;;5021959;28;20044;-82
2024/01/16 05:28:19;;;;;;;1.02;0.93;;;0.30;99.90;;;;;;5014306;28;20586;-82
2024/01/16 05:30:45;;;;;;;0.15;0.15;;;0.30;99.90;;;;;;5021687;28;20499;-82
2024/01/16 05:33:11;;;;;;;0.40;0.30;;;0.30;99.90;;;;;;5024321;28;20040;-82
2024/01/16 05:35:36;;;;;;;1.02;0.55;;;0.30;99.90;;;;;;5043124;28;20491;-82
2024/01/16 05:38:04;;;;;;;1.95;0.88;;;0.20;99.90;;;;;;5029765;28;20036;-82
2024/01/16 05:40:29;;;;;;;0.10;0.10;;;0.20;99.90;;;;;;5033123;28;20044;-82
2024/01/16 05:42:56;;;;;;;2.20;0.57;;;0.20;99.90;;;;;;5017758;28;20038;-82
2024/01/16 05:45:22;;;;;;;0.32;0.22;;;0.10;99.90;;;;;;5038036;28;20466;-82
2024/01/16 05:47:47;;;;;;;0.85;0.63;;;0.10;99.90;;;;;;5034722;28;20037;-82
2024/01/16 05:50:16;;;;;;;1.38;0.70;;;0.10;99.90;;;;;;5038168;28;20041;-82
2024/01/16 05:52:42;;;;;;;0.80;0.32;;;0.10;99.90;;;;;;5015972;28;20038;-83
2024/01/16 05:55:08;;;;;;;0.10;0.10;;;0.10;99.90;;;;;;5033262;28;20515;-83
2024/01/16 05:57:33;;;;;;;1.23;0.50;;;0.00;99.90;;;;;;5025725;28;20044;-83
2024/01/16 06:00:03;;;;;;;0.20;0.20;;;0.10;99.90;;;;;;5040914;28;20045;-82
2024/01/16 06:02:29;;;;;;;1.35;0.45;;;0.10;99.90;;;;;;5037008;28;20056;-82
2024/01/16 06:04:55;;;;;;;4.15;0.45;;;0.00;99.90;;;;;;5025508;28;20414;-82
2024/01/16 06:07:21;;;;;;;0.20;0.20;;;0.00;99.90;;;;;;5015937;28;20046;-82
2024/01/16 06:09:47;;;;;;;0.35;0.35;;;0.10;99.90;;;;;;5036188;28;20063;-82
2024/01/16 06:12:13;;;;;;;0.10;0.10;;;0.00;99.90;;;;;;5040206;28;20572;-82
2024/01/16 06:14:38;;;;;;;1.30;0.60;;;0.10;99.90;;;;;;5043029;28;20580;-82
2024/01/16 06:17:05;;;;;;;0.55;0.55;;;0.10;99.90;;;;;;5020394;28;20038;-82
2024/01/16 06:19:32;;;;;;;2.25;0.82;;;0.20;99.90;;;;;;5032197;28;20037;-82
2024/01/16 06:21:59;;;;;;;0.50;0.30;;;0.20;99.90;;;;;;5033585;28;20034;-82
2024/01/16 06:24:25;;;;;;;0.22;0.22;;;0.20;99.90;;;;;;5022078;28;20068;-82
2024/01/16 06:26:51;;;;;;;1.00;0.65;;;0.30;99.90;;;;;;5025280;28;20071;-82
2024/01/16 06:29:17;;;;;;;1.17;0.70;;;0.30;99.90;;;;;;5015375;28;20455;-82
2024/01/16 06:31:42;;;;;;;0.55;0.20;;;0.30;99.90;;;;;;5037238;28;20045;-82
2024/01/16 06:34:08;;;;;;;0.73;0.40;;;0.40;99.90;;;;;;5020532;28;20753;-82
2024/01/16 06:36:34;;;;;;;0.32;0.30;;;0.30;99.90;;;;;;5042526;28;20037;-82
2024/01/16 06:39:00;;;;;;;5.18;0.68;;;0.30;99.90;;;;;;5032227;28;20037;-82
2024/01/16 06:41:25;;;;;;;0.32;0.32;;;0.30;99.90;;;;;;5033384;28;20172;-82
2024/01/16 06:43:51;;;;;;;0.10;0.10;;;0.30;99.90;;;;;;5019638;28;20040;-82
2024/01/16 06:46:17;;;;;;;0.95;0.57;;;0.30;99.90;;;;;;5036334;28;20041;-82
2024/01/16 06:48:43;;;;;;;1.55;0.30;;;0.30;99.90;;;;;;5035737;28;20037;-80
2024/01/16 06:51:10;;;;;;;1.08;0.50;;;0.30;99.90;;;;;;5039992;28;20044;-81
2024/01/16 06:53:36;;;;;;;2.75;0.32;;;0.30;99.90;;;;;;5039457;28;20033;-81
2024/01/16 06:56:03;;;;;;;0.43;0.40;;;0.30;99.90;;;;;;5032653;28;20115;-81
2024/01/16 06:58:28;;;;;;;0.35;0.35;;;0.40;99.90;;;;;;5038038;28;20059;-82
2024/01/16 07:00:55;;;;;;;0.30;0.28;;;0.40;99.90;;;;;;5017284;28;20033;-81
2024/01/16 07:03:21;;;;;;;2.05;0.75;;;0.40;99.90;;;;;;5039454;28;20048;-81
2024/01/16 07:05:46;;;;;;;0.20;0.20;;;0.40;99.90;;;;;;5024212;28;20037;-81
2024/01/16 07:08:12;;;;;;;0.93;0.80;;;0.50;99.90;;;;;;5034720;28;20075;-81
2024/01/16 07:10:38;;;;;;;0.30;0.30;;;0.50;99.90;;;;;;5039354;28;20040;-81
2024/01/16 07:13:04;;;;;;;0.30;0.30;;;0.50;99.90;;;;;;5020291;28;20033;-81
2024/01/16 07:15:30;;;;;;;3.60;0.52;;;0.50;99.90;;;;;;5011870;28;20070;-81
2024/01/16 07:17:55;;;;;;;1.13;0.80;;;0.60;99.90;;;;;;5026864;28;20064;-81
2024/01/16 07:20:21;;;;;;;5.35;1.08;;;0.70;99.90;;;;;;5019602;28;20044;-81
2024/01/16 07:22:47;;;;;;;0.52;0.28;;;0.70;99.90;;;;;;5033484;28;20037;-81
2024/01/16 07:25:13;;;;;;;0.25;0.22;;;0.70;99.90;;;;;;5017285;28;20060;-81
2024/01/16 07:27:38;;;;;;;0.40;0.30;;;0.70;99.90;;;;;;5012053;28;20064;-82
2024/01/16 07:30:06;;;;;;;0.10;0.10;;;0.70;99.90;;;;;;5018164;28;20120;-82
2024/01/16 07:32:32;;;;;;;1.00;0.95;;;0.70;99.90;;;;;;5018777;28;20044;-81
2024/01/16 07:34:57;;;;;;;0.20;0.20;;;0.70;99.90;;;;;;5037665;28;20049;-82
2024/01/16 07:37:23;;;;;;;0.32;0.30;;;0.70;99.90;;;;;;5021765;28;20119;-82
2024/01/16 07:39:49;;;;;;;0.82;0.40;;;0.70;99.90;;;;;;5034999;28;20371;-82
2024/01/16 07:42:15;;;;;;;0.20;0.20;;;0.70;99.90;;;;;;5024627;28;20554;-82
2024/01/16 07:44:41;;;;;;;2.67;0.30;;;0.70;99.90;;;;;;5019424;28;20115;-82
2024/01/16 07:47:07;;;;;;;0.65;0.30;;;0.60;99.90;;;;;;5030919;28;20064;-82
2024/01/16 07:49:34;;;;;;;0.90;0.50;;;0.60;99.90;;;;;;5020839;28;20029;-82
2024/01/16 07:51:59;;;;;;;1.05;0.70;;;0.60;99.90;;;;;;5014384;28;20037;-82
2024/01/16 07:54:25;;;;;;;0.55;0.20;;;0.60;99.90;;;;;;5031336;28;20108;-82
2024/01/16 07:56:51;;;;;;;0.30;0.20;;;0.70;99.90;;;;;;5014084;28;20052;-82
2024/01/16 07:59:17;;;;;;;0.70;0.40;;;0.70;99.90;;;;;;5034438;28;20045;-82
2024/01/16 08:01:43;;;;;;;9.82;0.93;;;0.70;99.90;;;;;;5034856;28;20491;-82
2024/01/16 08:04:09;;;;;;;1.35;0.65;;;0.70;99.90;;;;;;5018453;28;20072;-82
2024/01/16 08:06:36;;;;;;;3.63;1.45;;;0.80;99.90;;;;;;5034056;28;20457;-82
2024/01/16 08:09:02;;;;;;;0.77;0.60;;;0.80;99.90;;;;;;5022994;28;20042;-82
2024/01/16 08:11:27;;;;;;;0.90;0.50;;;0.80;99.90;;;;;;5033978;28;20116;-82
2024/01/16 08:13:53;;;;;;;3.63;0.40;;;0.80;99.90;;;;;;5030144;28;20138;-82
2024/01/16 08:16:20;;;;;;;0.50;0.45;;;0.80;99.90;;;;;;5028722;28;20075;-82
2024/01/16 08:18:46;;;;;;;1.67;0.45;;;0.80;99.90;;;;;;5022718;28;20506;-87
2024/01/16 08:21:12;;;;;;;6.97;0.57;;;0.90;99.90;;;;;;5025572;28;20041;-83
2024/01/16 08:23:38;;;;;;;0.70;0.40;;;0.90;99.90;;;;;;5031504;28;20068;-82
2024/01/16 08:26:04;;;;;;;0.75;0.63;;;0.90;99.90;;;;;;5033968;28;20044;-82
2024/01/16 08:28:30;;;;;;;2.83;0.70;;;0.90;99.90;;;;;;5036688;28;20545;-82
2024/01/16 08:30:56;;;;;;;0.77;0.45;;;0.90;99.90;;;;;;5049761;28;20033;-82
2024/01/16 08:33:22;;;;;;;0.82;0.65;;;1.00;99.90;;;;;;5035920;28;20049;-82
2024/01/16 08:35:48;;;;;;;0.90;0.30;;;1.00;99.90;;;;;;5036412;28;20056;-82
2024/01/16 08:38:14;;;;;;;0.38;0.20;;;1.00;99.90;;;;;;5021413;28;20044;-82
2024/01/16 08:40:39;;;;;;;3.83;0.70;;;1.00;99.90;;;;;;5036876;28;20040;-82
2024/01/16 08:43:05;;;;;;;0.68;0.28;;;1.10;99.90;;;;;;5034322;28;20394;-82
2024/01/16 08:45:33;;;;;;;5.32;0.70;;;1.10;99.90;;;;;;5024480;28;20052;-82
2024/01/16 08:47:59;;;;;;;0.47;0.45;;;1.10;99.90;;;;;;5010073;28;20030;-82
2024/01/16 08:50:25;;;;;;;0.43;0.43;;;1.20;99.90;;;;;;5034266;28;20460;-83
2024/01/16 08:52:51;;;;;;;0.30;0.30;;;1.20;99.90;;;;;;5037729;28;20112;-83
2024/01/16 08:55:17;;;;;;;0.60;0.43;;;1.30;99.90;;;;;;5045132;28;20402;-83
2024/01/16 08:57:42;;;;;;;7.03;0.68;;;1.30;99.90;;;;;;5029867;28;20048;-83
2024/01/16 09:00:09;;;;;;;2.05;0.80;;;1.40;99.90;;;;;;5009952;28;20059;-83
2024/01/16 09:02:38;;;;;;;1.20;0.70;;;1.40;99.90;;;;;;5025405;28;20041;-83
2024/01/16 09:05:04;;;;;;;0.55;0.50;;;1.50;99.90;;;;;;5008296;28;20045;-83
2024/01/16 09:07:30;;;;;;;0.90;0.40;;;1.40;99.90;;;;;;5026340;28;20132;-83
2024/01/16 09:09:57;;;;;;;0.47;0.40;;;1.50;99.90;;;;;;5011169;28;20120;-83
2024/01/16 09:12:22;;;;;;;1.05;0.63;;;1.50;99.90;;;;;;5027855;28;20037;-84
2024/01/16 09:14:48;;;;;;;0.75;0.57;;;1.50;99.90;;;;;;5042470;28;20064;-84
2024/01/16 09:17:14;;;;;;;1.02;0.60;;;1.50;99.90;;;;;;5007884;28;20041;-84
2024/01/16 09:19:41;;;;;;;2.83;1.15;;;1.50;99.90;;;;;;5008694;28;20391;-84
2024/01/16 09:22:06;;;;;;;2.00;0.90;;;1.50;99.90;;;;;;5007250;28;20048;-84
2024/01/16 09:24:32;;;;;;;2.08;0.73;;;1.50;99.90;;;;;;5026386;28;20037;-84
2024/01/16 09:26:59;;;;;;;2.47;1.25;;;1.60;99.90;;;;;;5024378;28;20167;-84
2024/01/16 09:29:25;;;;;;;2.00;1.33;;;1.70;99.90;;;;;;5007887;28;20048;-84
2024/01/16 09:31:51;;;;;;;4.90;2.05;;;1.80;99.90;;;;;;5024172;28;20041;-87
2024/01/16 09:34:17;;;;;;;2.60;1.13;;;1.90;99.90;;;;;;5008099;28;20056;-85
2024/01/16 09:36:43;;;;;;;3.33;1.20;;;1.90;99.90;;;;;;5026433;28;20044;-83
2024/01/16 09:39:13;;;;;;;2.55;1.20;;;2.00;99.90;;;;;;5025947;28;20053;-85
2024/01/16 09:41:42;;;;;;;2.28;1.42;;;2.00;99.90;;;;;;5025128;28;20052;-84
2024/01/16 09:44:08;;;;;;;2.95;0.90;;;2.00;99.90;;;;;;5043306;28;20048;-83
2024/01/16 09:46:37;;;;;;;2.80;1.58;;;2.00;99.90;;;;;;5026927;28;20056;-83
2024/01/16 09:49:03;;;;;;;1.83;0.90;;;2.00;99.90;;;;;;5019067;28;20045;-83
2024/01/16 09:51:29;;;;;;;2.67;0.98;;;1.90;99.90;;;;;;5028314;28;20053;-83
2024/01/16 09:53:56;;;;;;;1.15;0.93;;;1.90;99.90;;;;;;5010596;28;20395;-83
2024/01/16 09:56:28;;;;;;;2.08;0.88;;;1.80;99.90;;;;;;5040327;28;20527;-83
2024/01/16 09:59:04;;;;;;;0.98;0.73;;;1.80;99.90;;;;;;5007620;28;20037;-83
2024/01/16 10:01:32;;;;;;;0.77;0.60;;;1.70;99.90;;;;;;5019126;28;20045;-82
2024/01/16 10:03:59;;;;;;;0.90;0.55;;;1.80;99.90;;;;;;5023199;28;20144;-83
2024/01/16 10:06:28;;;;;;;0.52;0.40;;;1.80;99.90;;;;;;5006840;28;20041;-82
2024/01/16 10:08:54;;;;;;;0.95;0.35;;;1.80;99.90;;;;;;5007027;28;20033;-83
2024/01/16 10:11:19;;;;;;;1.08;0.65;;;1.80;99.90;;;;;;5039316;28;20403;-83
2024/01/16 10:13:45;;;;;;;4.18;0.88;;;1.80;99.90;;;;;;5025082;28;20029;-83
2024/01/16 10:16:11;;;;;;;0.77;0.57;;;1.80;99.90;;;;;;5027509;28;20064;-83
2024/01/16 10:18:37;;;;;;;0.95;0.38;;;1.80;99.90;;;;;;5005849;28;20142;-83
2024/01/16 10:21:04;;;;;;;9.57;0.88;;;1.70;99.90;;;;;;5021479;28;20048;-83
2024/01/16 10:23:34;;;;;;;1.13;0.20;;;1.70;99.90;;;;;;5008980;28;20152;-83
2024/01/16 10:26:11;;;;;;;0.98;0.40;;;1.70;99.90;;;;;;5007451;28;20044;-83
2024/01/16 10:28:41;;;;;;;0.63;0.20;;;1.70;99.90;;;;;;5025890;28;20037;-83
2024/01/16 10:31:09;;;;;;;0.63;0.30;;;1.70;99.90;;;;;;5005896;28;20175;-83
2024/01/16 10:33:38;;;;;;;1.20;0.32;;;1.70;99.90;;;;;;5010558;28;20029;-83
2024/01/16 10:36:20;;;;;;;0.10;0.10;;;1.60;99.90;;;;;;5009957;28;20536;-82
2024/01/16 10:38:46;;;;;;;0.20;0.20;;;1.50;99.90;;;;;;5026794;28;20041;-82
2024/01/16 10:41:17;;;;;;;0.65;0.47;;;1.50;99.90;;;;;;5024945;28;20041;-82
2024/01/16 10:43:46;;;;;;;1.65;0.30;;;1.40;99.90;;;;;;5041589;28;20690;-82
2024/01/16 10:46:12;;;;;;;12.27;2.97;;;1.40;99.90;;;;;;5008573;28;20487;-82
2024/01/16 10:48:41;;;;;;;10.88;1.10;;;1.30;99.90;;;;;;5043766;28;20041;-83
2024/01/16 10:51:13;;;;;;;1.55;0.45;;;1.30;99.90;;;;;;5024403;28;20124;-82
2024/01/16 10:53:43;;;;;;;0.97;0.60;;;1.30;99.90;;;;;;5008132;28;20078;-82
2024/01/16 10:56:13;;;;;;;4.47;0.65;;;1.20;99.90;;;;;;5023180;28;20052;-82
2024/01/16 10:58:41;;;;;;;1.65;0.30;;;1.20;99.90;;;;;;5042095;28;20048;-82
2024/01/16 11:01:19;;;;;;;1.90;0.40;;;1.30;99.90;;;;;;5008922;28;20044;-82
2024/01/16 11:03:49;;;;;;;2.58;1.10;;;1.30;99.90;;;;;;5003484;28;20126;-82
2024/01/16 11:06:17;;;;;;;5.05;0.55;;;1.20;99.90;;;;;;5024397;28;20095;-82
2024/01/16 11:08:46;;;;;;;0.17;0.17;;;1.20;99.90;;;;;;5007583;28;20116;-82
2024/01/16 11:11:13;;;;;;;0.20;0.20;;;1.20;99.90;;;;;;5026451;28;20043;-81
2024/01/16 11:13:41;;;;;;;3.63;0.50;;;1.30;99.90;;;;;;5009241;28;20047;-82
2024/01/16 11:16:10;;;;;;;0.85;0.45;;;1.30;99.90;;;;;;5044056;28;20387;-82
2024/01/16 11:18:36;;;;;;;5.88;0.50;;;1.30;99.90;;;;;;5031670;28;20045;-83
2024/01/16 11:21:16;;;;;;;0.30;0.30;;;1.30;99.90;;;;;;5024491;28;20048;-82
2024/01/16 11:23:42;;;;;;;1.45;0.47;;;1.40;99.90;;;;;;5008824;28;20037;-82
2024/01/16 11:26:40;;;;;;;7.15;0.63;;;1.40;99.90;;;;;;5015374;28;20120;-83
2024/01/16 11:29:27;;;;;;;0.75;0.52;;;1.50;99.90;;;;;;4991789;28;20103;-83
2024/01/16 11:31:54;;;;;;;0.28;0.25;;;1.50;99.90;;;;;;5024998;28;20029;-83
2024/01/16 11:34:43;;;;;;;1.77;1.02;;;1.60;99.90;;;;;;5013347;28;20041;-82
2024/01/16 11:37:13;;;;;;;1.87;0.57;;;1.60;99.90;;;;;;5002881;28;20045;-82
2024/01/16 11:39:40;;;;;;;;;;;1.70;99.90;;;;;;5008337;28;20045;-82
2024/01/16 11:42:08;;;;;;;5.25;0.77;;;1.70;99.90;;;;;;5007661;28;20347;-83
2024/01/16 11:44:46;;;;;;;3.58;0.77;;;1.80;99.90;;;;;;5025746;28;20045;-83
2024/01/16 11:47:30;;;;;;;1.02;0.70;;;1.90;99.90;;;;;;5008530;28;20041;-83
2024/01/16 11:50:26;;;;;;;2.92;1.05;;;2.00;99.90;;;;;;5024808;28;20508;-83
2024/01/16 11:52:52;;;;;;;3.38;0.95;;;2.00;99.90;;;;;;5024041;28;20435;-83
2024/01/16 11:55:31;;;;;;;1.33;0.60;;;2.00;99.90;;;;;;5010123;28;20084;-90
2024/01/16 11:58:15;;;;;;;1.90;1.20;;;1.90;99.90;;;;;;5022659;28;20052;-84
2024/01/16 12:00:44;;;;;;;1.77;1.27;;;1.90;99.90;;;;;;5026446;28;20071;-83
2024/01/16 12:03:13;;;;;;;2.17;0.75;;;1.90;99.90;;;;;;5023460;28;20029;-88
2024/01/16 12:05:39;;;;;;;2.03;1.20;;;1.90;99.90;;;;;;5006023;28;20037;-84
2024/01/16 12:08:06;;;;;;;3.20;1.23;;;1.90;99.90;;;;;;5022747;28;20049;-83
2024/01/16 12:10:31;;;;;;;1.58;0.80;;;1.90;99.90;;;;;;5024587;28;20514;-83
2024/01/16 12:12:59;;;;;;;0.85;0.52;;;1.90;99.90;;;;;;5023939;28;20068;-83
2024/01/16 12:15:25;;;;;;;1.15;0.73;;;1.80;99.90;;;;;;5004947;28;20046;-83
2024/01/16 12:18:01;;;;;;;1.88;0.60;;;1.80;99.90;;;;;;5004481;28;20033;-83
2024/01/16 12:20:29;;;;;;;5.82;1.67;;;1.80;99.90;;;;;;5021253;28;20449;-83
2024/01/16 12:23:00;;;;;;;2.53;0.60;;;1.80;99.90;;;;;;5005461;28;20037;-83
2024/01/16 12:25:27;;;;;;;1.25;0.88;;;1.90;99.90;;;;;;5019618;28;20534;-83
2024/01/16 12:28:10;;;;;;;6.25;1.80;;;2.30;99.90;;;;;;5024965;28;20050;-83
2024/01/16 12:30:37;;;;;;;1.90;1.13;;;2.80;99.90;;;;;;5027604;28;20045;-84
2024/01/16 12:33:08;;;;;;;3.47;1.40;;;3.00;99.90;;;;;;5025950;28;20095;-83
2024/01/16 12:35:40;;;;;;;2.40;1.08;;;3.20;99.90;;;;;;5008336;28;20913;-83
2024/01/16 12:38:10;;;;;;;2.78;1.60;;;3.60;99.90;;;;;;5011644;28;20036;-83
2024/01/16 12:40:40;;;;;;;5.43;1.33;;;3.90;99.90;;;;;;5026451;28;20041;-83
2024/01/16 12:43:07;;;;;;;3.47;1.80;;;4.10;99.90;;;;;;5021623;28;20033;-83
2024/01/16 12:45:33;;;;;;;3.22;1.77;;;4.00;99.90;;;;;;5024975;28;20050;-82
2024/01/16 12:48:00;;;;;;;3.72;1.25;;;3.90;99.90;;;;;;5007147;28;20090;-82
2024/01/16 12:50:29;;;;;;;2.67;0.95;;;3.90;99.90;;;;;;5039702;28;20186;-82
2024/01/16 12:53:06;;;;;;;6.75;1.00;;;4.00;99.90;;;;;;5025019;28;20372;-82
2024/01/16 12:55:33;;;;;;;4.97;1.10;;;4.00;99.90;;;;;;5009787;28;20045;-82